Time;durP1;ratioP1;P1;durP2;ratioP2;P2;SDS_P1;SDS_P2;PMS_P1;PMS_P2;Temp;Humidity;BMP_temperature;BMP_pressure;BME280_temperature;BME280_humidity;BME280_pressure;Samples;Min_cycle;Max_cycle;Signal;HPM_P1;HPM_P2
2023/12/23 00:02:06;;;;;;;59.38;35.15;;;6.10;99.90;;;;;;4954357;29;20027;-73
2023/12/23 00:04:31;;;;;;;48.30;28.58;;;6.10;99.90;;;;;;4953938;29;20027;-73
2023/12/23 00:07:07;;;;;;;46.30;24.42;;;6.10;99.90;;;;;;4936614;29;20047;-74
2023/12/23 00:09:33;;;;;;;36.63;21.50;;;6.10;99.90;;;;;;4954375;28;20365;-73
2023/12/23 00:11:59;;;;;;;40.38;20.90;;;6.10;99.90;;;;;;4954308;29;20030;-74
2023/12/23 00:14:25;;;;;;;50.35;29.15;;;6.10;99.90;;;;;;4954431;29;20455;-74
2023/12/23 00:16:50;;;;;;;59.90;32.92;;;6.10;99.90;;;;;;4954058;29;20109;-73
2023/12/23 00:19:16;;;;;;;50.35;27.35;;;6.10;99.90;;;;;;4954230;29;20027;-72
2023/12/23 00:21:42;;;;;;;50.85;27.73;;;6.10;99.90;;;;;;4960994;28;20411;-73
2023/12/23 00:24:08;;;;;;;42.80;25.60;;;6.20;99.90;;;;;;4954204;29;20082;-73
2023/12/23 00:26:34;;;;;;;37.97;22.75;;;6.20;99.90;;;;;;4957674;28;20035;-73
2023/12/23 00:29:00;;;;;;;41.08;21.48;;;6.20;99.90;;;;;;4949323;28;20045;-73
2023/12/23 00:31:26;;;;;;;37.97;20.83;;;6.20;99.90;;;;;;4941223;29;20020;-73
2023/12/23 00:33:52;;;;;;;36.13;21.17;;;6.10;99.90;;;;;;4953604;28;20031;-71
2023/12/23 00:36:18;;;;;;;31.60;20.52;;;6.10;99.90;;;;;;4953867;28;20051;-72
2023/12/23 00:38:43;;;;;;;34.67;22.05;;;6.10;99.90;;;;;;4953424;28;20518;-73
2023/12/23 00:41:09;;;;;;;36.28;20.65;;;6.10;99.90;;;;;;4953934;29;20174;-73
2023/12/23 00:43:35;;;;;;;30.58;18.08;;;6.10;99.90;;;;;;4953770;29;20487;-72
2023/12/23 00:46:02;;;;;;;34.90;20.23;;;6.10;99.90;;;;;;4941278;29;20015;-73
2023/12/23 00:48:28;;;;;;;55.47;31.63;;;6.00;99.90;;;;;;4953513;28;20054;-72
2023/12/23 00:50:54;;;;;;;42.50;26.02;;;6.00;99.90;;;;;;4941263;29;20023;-72
2023/12/23 00:53:19;;;;;;;44.42;25.95;;;6.00;99.90;;;;;;4936166;29;20043;-72
2023/12/23 00:55:46;;;;;;;54.40;33.33;;;6.10;99.90;;;;;;4936167;29;20027;-72
2023/12/23 00:58:12;;;;;;;46.63;29.67;;;6.10;99.90;;;;;;4953763;28;20086;-73
2023/12/23 01:00:38;;;;;;;36.85;21.40;;;6.10;99.90;;;;;;4936048;29;20391;-72
2023/12/23 01:03:04;;;;;;;29.13;18.15;;;6.00;99.90;;;;;;4936290;29;20049;-73
2023/12/23 01:05:31;;;;;;;28.85;15.13;;;6.10;99.90;;;;;;4935993;29;20046;-73
2023/12/23 01:07:57;;;;;;;25.33;14.73;;;6.10;99.90;;;;;;4953451;28;20043;-73
2023/12/23 01:10:25;;;;;;;25.23;14.18;;;6.00;99.90;;;;;;4952888;28;20035;-73
2023/12/23 01:12:51;;;;;;;25.13;14.07;;;6.10;99.90;;;;;;4955005;28;20730;-73
2023/12/23 01:15:17;;;;;;;28.75;14.50;;;6.10;99.90;;;;;;4924460;29;20027;-73
2023/12/23 01:17:43;;;;;;;27.80;16.10;;;6.10;99.90;;;;;;4960886;28;20518;-73
2023/12/23 01:20:09;;;;;;;26.77;16.05;;;6.00;99.90;;;;;;4939507;29;20071;-73
2023/12/23 01:22:35;;;;;;;26.77;14.98;;;6.00;99.90;;;;;;4945855;29;20027;-73
2023/12/23 01:25:02;;;;;;;26.75;15.10;;;6.00;99.90;;;;;;4957930;28;20031;-72
2023/12/23 01:27:28;;;;;;;23.33;13.75;;;5.90;99.90;;;;;;4960275;28;20103;-73
2023/12/23 01:29:54;;;;;;;24.58;14.38;;;5.80;99.90;;;;;;4945590;28;20043;-73
2023/12/23 01:32:21;;;;;;;24.77;13.70;;;5.90;99.90;;;;;;4954961;29;20479;-73
2023/12/23 01:34:48;;;;;;;27.50;15.65;;;5.90;99.90;;;;;;4941669;29;20028;-73
2023/12/23 01:37:14;;;;;;;26.20;14.40;;;5.80;99.90;;;;;;4956946;28;20562;-73
2023/12/23 01:39:40;;;;;;;25.55;13.75;;;5.80;99.90;;;;;;4956941;28;20046;-73
2023/12/23 01:42:05;;;;;;;23.98;13.40;;;5.80;99.90;;;;;;4940883;29;20058;-73
2023/12/23 01:44:32;;;;;;;24.38;12.52;;;5.90;99.90;;;;;;4941152;29;20109;-74
2023/12/23 01:47:00;;;;;;;23.67;12.48;;;5.80;99.90;;;;;;4938955;29;20058;-73
2023/12/23 01:49:29;;;;;;;20.17;11.55;;;5.80;99.90;;;;;;4955523;29;20039;-73
2023/12/23 01:51:58;;;;;;;22.02;12.30;;;5.70;99.90;;;;;;4936876;29;20035;-74
2023/12/23 01:54:24;;;;;;;27.13;12.90;;;5.80;99.90;;;;;;4938434;29;20142;-73
2023/12/23 01:56:51;;;;;;;23.15;13.07;;;5.80;99.90;;;;;;4939065;29;20027;-71
2023/12/23 01:59:17;;;;;;;24.63;14.23;;;5.80;99.90;;;;;;4941240;29;20110;-72
2023/12/23 02:01:44;;;;;;;25.17;15.32;;;5.80;99.90;;;;;;4938407;28;20082;-72
2023/12/23 02:04:09;;;;;;;26.15;15.50;;;5.80;99.90;;;;;;4940108;29;20031;-73
2023/12/23 02:06:35;;;;;;;24.88;15.27;;;5.80;99.90;;;;;;4955361;29;20062;-72
2023/12/23 02:09:03;;;;;;;20.95;12.32;;;5.80;99.90;;;;;;4941337;28;20032;-73
2023/12/23 02:11:36;;;;;;;24.52;12.60;;;5.70;99.90;;;;;;4940764;29;20126;-73
2023/12/23 02:14:06;;;;;;;;;;;5.70;99.90;;;;;;4940269;29;20071;-72
2023/12/23 02:16:33;;;;;;;18.33;10.13;;;5.60;99.90;;;;;;4939860;29;19954;-72
2023/12/23 02:19:00;;;;;;;22.58;11.25;;;5.50;99.90;;;;;;4941143;29;20027;-72
2023/12/23 02:21:26;;;;;;;23.90;11.50;;;5.50;99.90;;;;;;4954570;28;20553;-72
2023/12/23 02:23:52;;;;;;;19.15;11.13;;;5.40;99.90;;;;;;4954397;28;20019;-72
2023/12/23 02:26:22;;;;;;;20.55;11.20;;;5.40;99.90;;;;;;4925576;29;20035;-72
2023/12/23 02:28:51;;;;;;;22.30;11.68;;;5.20;99.90;;;;;;4937385;29;20035;-74
2023/12/23 02:31:19;;;;;;;26.65;13.57;;;5.20;99.90;;;;;;4943025;29;20031;-72
2023/12/23 02:33:47;;;;;;;25.58;15.57;;;5.10;99.90;;;;;;4954375;29;20031;-72
2023/12/23 02:36:13;;;;;;;43.17;30.77;;;5.00;99.90;;;;;;4954201;28;20452;-72
2023/12/23 02:38:39;;;;;;;59.85;37.83;;;5.10;99.90;;;;;;4954442;29;20020;-72
2023/12/23 02:41:06;;;;;;;36.85;21.48;;;5.10;99.90;;;;;;4954680;29;20023;-73
2023/12/23 02:43:31;;;;;;;35.00;21.17;;;5.00;99.90;;;;;;4954303;29;20468;-73
2023/12/23 02:45:57;;;;;;;32.33;18.77;;;5.00;99.90;;;;;;4954605;29;20034;-73
2023/12/23 02:48:23;;;;;;;29.63;14.68;;;5.00;99.90;;;;;;4938613;29;20105;-73
2023/12/23 02:50:49;;;;;;;22.77;14.63;;;4.90;99.90;;;;;;4920451;29;20078;-73
2023/12/23 02:53:15;;;;;;;22.00;12.77;;;4.90;99.90;;;;;;4937185;28;20125;-72
2023/12/23 02:55:41;;;;;;;21.48;12.07;;;4.90;99.90;;;;;;4954230;28;20106;-72
2023/12/23 02:58:07;;;;;;;19.35;10.40;;;4.80;99.90;;;;;;4939428;29;20046;-73
2023/12/23 03:00:33;;;;;;;21.80;11.15;;;5.00;99.90;;;;;;4954011;28;20032;-73
2023/12/23 03:02:59;;;;;;;16.20;9.65;;;5.00;99.90;;;;;;4954300;29;20031;-72
2023/12/23 03:05:25;;;;;;;17.05;9.73;;;5.00;99.90;;;;;;4953583;28;20032;-72
2023/12/23 03:07:51;;;;;;;13.18;8.45;;;5.00;99.90;;;;;;4939829;29;20174;-73
2023/12/23 03:10:17;;;;;;;16.10;8.43;;;5.00;99.90;;;;;;4953924;28;20019;-72
2023/12/23 03:12:43;;;;;;;17.35;8.80;;;5.00;99.90;;;;;;4928335;29;20070;-72
2023/12/23 03:15:09;;;;;;;22.88;12.35;;;5.00;99.90;;;;;;4953727;28;20467;-73
2023/12/23 03:17:35;;;;;;;19.67;10.75;;;4.90;99.90;;;;;;4953875;28;20023;-73
2023/12/23 03:20:01;;;;;;;16.75;9.38;;;4.70;99.90;;;;;;4953812;29;20020;-73
2023/12/23 03:22:27;;;;;;;16.25;8.48;;;4.70;99.90;;;;;;4938086;28;20415;-71
2023/12/23 03:24:53;;;;;;;14.13;6.90;;;5.00;99.90;;;;;;4938153;29;20035;-72
2023/12/23 03:27:18;;;;;;;12.75;6.38;;;5.00;99.90;;;;;;4953607;29;20550;-72
2023/12/23 03:29:45;;;;;;;14.93;6.75;;;5.10;99.90;;;;;;4953689;29;20462;-72
2023/12/23 03:32:11;;;;;;;10.10;5.72;;;5.10;99.90;;;;;;4953335;29;20019;-72
2023/12/23 03:34:36;;;;;;;11.98;6.72;;;5.10;99.90;;;;;;4952661;28;20531;-72
2023/12/23 03:37:02;;;;;;;12.80;6.00;;;5.10;99.90;;;;;;4953427;28;20054;-72
2023/12/23 03:39:28;;;;;;;12.77;5.55;;;5.10;99.90;;;;;;4920317;29;20046;-72
2023/12/23 03:41:54;;;;;;;13.65;5.63;;;5.10;99.90;;;;;;4910953;29;20118;-72
2023/12/23 03:44:20;;;;;;;14.27;5.75;;;5.10;99.90;;;;;;4950552;28;20147;-72
2023/12/23 03:46:46;;;;;;;8.65;4.57;;;5.10;99.90;;;;;;4938265;29;20034;-74
2023/12/23 03:49:12;;;;;;;5.55;3.08;;;5.20;99.90;;;;;;4937948;29;20585;-74
2023/12/23 03:51:38;;;;;;;4.72;2.92;;;5.30;99.90;;;;;;4952699;29;20023;-71
2023/12/23 03:54:03;;;;;;;6.65;3.50;;;5.40;99.90;;;;;;4952602;28;20059;-74
2023/12/23 03:56:29;;;;;;;6.32;3.05;;;5.40;99.90;;;;;;4938898;29;20383;-73
2023/12/23 03:58:58;;;;;;;4.82;3.30;;;5.40;99.90;;;;;;4953002;28;20027;-73
2023/12/23 04:01:24;;;;;;;4.53;3.03;;;5.40;99.90;;;;;;4953097;29;20384;-73
2023/12/23 04:03:50;;;;;;;6.80;4.05;;;5.40;99.90;;;;;;4919891;29;20039;-74
2023/12/23 04:06:16;;;;;;;6.50;3.60;;;5.40;99.90;;;;;;4939441;29;20074;-71
2023/12/23 04:08:42;;;;;;;6.38;3.03;;;5.50;99.90;;;;;;4940449;29;20062;-72
2023/12/23 04:11:08;;;;;;;5.95;3.25;;;5.50;99.90;;;;;;4952911;29;20062;-73
2023/12/23 04:13:36;;;;;;;6.72;3.53;;;5.50;99.90;;;;;;4950963;28;20034;-72
2023/12/23 04:16:04;;;;;;;6.80;3.17;;;5.50;99.90;;;;;;4934949;29;20027;-72
2023/12/23 04:18:30;;;;;;;6.32;3.20;;;5.50;99.90;;;;;;4938134;29;20530;-73
2023/12/23 04:20:56;;;;;;;6.10;2.85;;;5.40;99.90;;;;;;4937125;29;20475;-71
2023/12/23 04:23:22;;;;;;;6.68;3.50;;;5.40;99.90;;;;;;4922125;29;20035;-72
2023/12/23 04:25:48;;;;;;;8.10;4.18;;;5.40;99.90;;;;;;4934825;28;20484;-72
2023/12/23 04:28:15;;;;;;;14.05;5.18;;;5.40;99.90;;;;;;4952081;29;20059;-72
2023/12/23 04:30:42;;;;;;;15.60;5.75;;;5.50;99.90;;;;;;4923453;29;20035;-72
2023/12/23 04:33:08;;;;;;;10.65;4.85;;;5.50;99.90;;;;;;4937878;29;20034;-72
2023/12/23 04:35:36;;;;;;;12.60;5.90;;;5.50;99.90;;;;;;4932862;29;20062;-72
2023/12/23 04:38:02;;;;;;;11.40;4.25;;;5.40;99.90;;;;;;4916696;29;20052;-72
2023/12/23 04:40:28;;;;;;;9.27;4.40;;;5.30;99.90;;;;;;4919011;29;20032;-73
2023/12/23 04:42:54;;;;;;;7.85;4.65;;;5.30;99.90;;;;;;4933163;29;20055;-73
2023/12/23 04:45:20;;;;;;;11.30;5.32;;;5.20;99.90;;;;;;4919560;29;20381;-73
2023/12/23 04:47:46;;;;;;;9.60;4.90;;;5.20;99.90;;;;;;4931832;29;20047;-73
2023/12/23 04:50:12;;;;;;;9.48;4.97;;;5.10;99.90;;;;;;4932096;29;20020;-73
2023/12/23 04:52:38;;;;;;;10.48;4.82;;;5.10;99.90;;;;;;4918974;29;20083;-74
2023/12/23 04:55:05;;;;;;;6.72;3.92;;;5.10;99.90;;;;;;4920232;29;20028;-74
2023/12/23 04:57:34;;;;;;;8.23;4.38;;;5.00;99.90;;;;;;4932163;29;20039;-74
2023/12/23 05:00:00;;;;;;;8.45;4.60;;;5.00;99.90;;;;;;4932209;29;20027;-74
2023/12/23 05:02:27;;;;;;;8.18;4.70;;;4.90;99.90;;;;;;4899978;29;20095;-72
2023/12/23 05:04:52;;;;;;;9.55;4.97;;;4.90;99.90;;;;;;4936946;29;20460;-72
2023/12/23 05:07:18;;;;;;;11.10;6.18;;;4.90;99.90;;;;;;4931717;29;20051;-72
2023/12/23 05:09:44;;;;;;;13.88;6.25;;;4.90;99.90;;;;;;4932849;29;20119;-72
2023/12/23 05:12:10;;;;;;;11.48;5.93;;;4.90;99.90;;;;;;4932220;29;20024;-73
2023/12/23 05:14:36;;;;;;;11.63;4.90;;;4.90;99.90;;;;;;4915976;29;21240;-72
2023/12/23 05:17:02;;;;;;;10.93;5.55;;;4.90;99.90;;;;;;4931418;29;20035;-72
2023/12/23 05:19:28;;;;;;;9.98;5.60;;;4.90;99.90;;;;;;4931622;29;20019;-72
2023/12/23 05:21:54;;;;;;;20.08;6.30;;;4.90;99.90;;;;;;4934363;29;20061;-73
2023/12/23 05:24:20;;;;;;;11.82;5.00;;;4.80;99.90;;;;;;4932863;29;20028;-73
2023/12/23 05:26:46;;;;;;;15.43;6.22;;;4.80;99.90;;;;;;4933256;29;20031;-73
2023/12/23 05:29:12;;;;;;;9.30;5.25;;;4.80;99.90;;;;;;4927377;29;20056;-73
2023/12/23 05:31:39;;;;;;;11.95;6.10;;;4.90;99.90;;;;;;4922993;29;20032;-72
2023/12/23 05:34:04;;;;;;;16.83;6.03;;;4.90;99.90;;;;;;4933583;29;20032;-73
2023/12/23 05:36:30;;;;;;;10.50;5.40;;;4.90;99.90;;;;;;4932138;29;20058;-72
2023/12/23 05:38:57;;;;;;;11.90;5.20;;;4.90;99.90;;;;;;4934436;29;20034;-72
2023/12/23 05:41:23;;;;;;;8.07;4.47;;;5.00;99.90;;;;;;4931508;29;20496;-72
2023/12/23 05:43:48;;;;;;;9.02;4.70;;;5.10;99.90;;;;;;4934036;29;20103;-73
2023/12/23 05:46:14;;;;;;;7.13;3.88;;;5.20;99.90;;;;;;4934206;29;20056;-72
2023/12/23 05:48:40;;;;;;;8.60;4.47;;;5.30;99.90;;;;;;4934299;29;20058;-73
2023/12/23 05:51:11;;;;;;;8.23;4.00;;;5.40;99.90;;;;;;4933881;29;20026;-72
2023/12/23 05:53:37;;;;;;;5.13;3.50;;;5.50;99.90;;;;;;4931169;29;20051;-74
2023/12/23 05:56:04;;;;;;;8.57;4.18;;;5.50;99.90;;;;;;4934535;29;20023;-72
2023/12/23 05:58:30;;;;;;;9.20;4.32;;;5.50;99.90;;;;;;4935971;29;20039;-74
2023/12/23 06:00:57;;;;;;;7.38;4.03;;;5.60;99.90;;;;;;4937398;29;20030;-74
2023/12/23 06:03:22;;;;;;;8.25;4.53;;;5.60;99.90;;;;;;4937383;29;20040;-74
2023/12/23 06:05:49;;;;;;;8.65;4.30;;;5.70;99.90;;;;;;4930110;29;20039;-72
2023/12/23 06:08:15;;;;;;;9.15;4.45;;;5.70;99.90;;;;;;4945026;29;20090;-72
2023/12/23 06:10:41;;;;;;;11.02;5.28;;;5.70;99.90;;;;;;4939187;28;20019;-72
2023/12/23 06:13:07;;;;;;;8.73;4.22;;;5.80;99.90;;;;;;4937229;29;20064;-73
2023/12/23 06:15:33;;;;;;;9.30;4.57;;;5.80;99.90;;;;;;4937101;29;20019;-74
2023/12/23 06:17:59;;;;;;;6.95;3.97;;;5.80;99.90;;;;;;4937221;29;20050;-74
2023/12/23 06:20:25;;;;;;;7.97;3.97;;;5.80;99.90;;;;;;4937174;29;20123;-74
2023/12/23 06:22:51;;;;;;;9.63;4.63;;;5.80;99.90;;;;;;4937008;29;20028;-74
2023/12/23 06:25:17;;;;;;;10.13;4.75;;;5.80;99.90;;;;;;4936998;29;20064;-74
2023/12/23 06:27:42;;;;;;;7.60;3.83;;;5.80;99.90;;;;;;4936993;29;20056;-74
2023/12/23 06:30:09;;;;;;;12.00;4.57;;;5.80;99.90;;;;;;4937165;29;20042;-75
2023/12/23 06:32:35;;;;;;;11.57;4.47;;;5.80;99.90;;;;;;4937073;29;20119;-74
2023/12/23 06:35:01;;;;;;;7.07;3.97;;;5.80;99.90;;;;;;4937760;29;20032;-75
2023/12/23 06:37:26;;;;;;;11.52;3.80;;;5.80;99.90;;;;;;4955722;28;20035;-73
2023/12/23 06:39:52;;;;;;;7.03;3.55;;;5.80;99.90;;;;;;4956067;28;20057;-74
2023/12/23 06:42:18;;;;;;;9.75;4.97;;;5.80;99.90;;;;;;4955782;29;20491;-74
2023/12/23 06:44:44;;;;;;;18.70;8.10;;;5.80;99.90;;;;;;4955915;29;20030;-75
2023/12/23 06:47:10;;;;;;;7.45;3.28;;;5.80;99.90;;;;;;4955844;28;20043;-74
2023/12/23 06:49:36;;;;;;;6.95;3.72;;;5.80;99.90;;;;;;4955818;29;20031;-73
2023/12/23 06:52:02;;;;;;;9.68;4.57;;;5.80;99.90;;;;;;4955454;29;20019;-74
2023/12/23 06:54:27;;;;;;;9.55;4.07;;;5.80;99.90;;;;;;4955953;29;20027;-74
2023/12/23 06:56:53;;;;;;;12.07;3.33;;;5.80;99.90;;;;;;4955450;29;20030;-73
2023/12/23 06:59:19;;;;;;;6.07;2.95;;;5.80;99.90;;;;;;4958055;28;20019;-74
2023/12/23 07:01:45;;;;;;;8.68;3.30;;;5.80;99.90;;;;;;4942463;29;20035;-74
2023/12/23 07:04:11;;;;;;;7.47;4.13;;;5.80;99.90;;;;;;4955738;28;20444;-74
2023/12/23 07:06:37;;;;;;;8.35;4.53;;;5.80;99.90;;;;;;4954738;29;20038;-74
2023/12/23 07:09:04;;;;;;;9.52;4.15;;;5.80;99.90;;;;;;4942701;29;20399;-72
2023/12/23 07:11:32;;;;;;;6.43;3.33;;;5.80;99.90;;;;;;4913637;29;20473;-72
2023/12/23 07:13:57;;;;;;;5.85;3.10;;;5.80;99.90;;;;;;4948879;28;20024;-74
2023/12/23 07:16:23;;;;;;;5.07;2.53;;;5.80;99.90;;;;;;4946790;28;20023;-75
2023/12/23 07:18:49;;;;;;;5.93;3.40;;;5.80;99.90;;;;;;4945975;29;20063;-74
2023/12/23 07:21:15;;;;;;;9.82;4.20;;;5.80;99.90;;;;;;4948972;29;20051;-74
2023/12/23 07:23:41;;;;;;;12.13;5.80;;;5.80;99.90;;;;;;4945988;29;20077;-74
2023/12/23 07:26:13;;;;;;;13.25;6.43;;;5.80;99.90;;;;;;4942345;28;20028;-74
2023/12/23 07:28:39;;;;;;;13.85;6.72;;;5.80;99.90;;;;;;4938057;29;20395;-75
2023/12/23 07:31:06;;;;;;;10.13;5.15;;;5.80;99.90;;;;;;4955182;29;20047;-74
2023/12/23 07:33:32;;;;;;;9.30;4.50;;;5.80;99.90;;;;;;4954460;29;20050;-74
2023/12/23 07:35:58;;;;;;;9.75;4.40;;;5.90;99.90;;;;;;4955017;29;20487;-73
2023/12/23 07:38:24;;;;;;;11.90;4.82;;;5.90;99.90;;;;;;4954568;29;20038;-74
2023/12/23 07:40:50;;;;;;;10.68;5.03;;;5.90;99.90;;;;;;4942068;29;20024;-74
2023/12/23 07:43:16;;;;;;;7.95;4.43;;;6.00;99.90;;;;;;4952149;29;20039;-74
2023/12/23 07:45:42;;;;;;;14.90;5.53;;;5.90;99.90;;;;;;4954886;28;20024;-74
2023/12/23 07:48:08;;;;;;;12.80;5.68;;;6.00;99.90;;;;;;4942184;29;20034;-74
2023/12/23 07:50:34;;;;;;;11.32;6.43;;;6.00;99.90;;;;;;4943140;29;20031;-74
2023/12/23 07:53:00;;;;;;;13.98;7.68;;;6.00;99.90;;;;;;4948256;28;20380;-74
2023/12/23 07:55:26;;;;;;;15.82;7.70;;;6.00;99.90;;;;;;4944514;29;20387;-74
2023/12/23 07:57:52;;;;;;;11.88;5.40;;;6.10;99.90;;;;;;4952619;28;20030;-74
2023/12/23 08:00:18;;;;;;;10.38;4.50;;;6.10;99.90;;;;;;4947865;28;20043;-74
2023/12/23 08:02:44;;;;;;;9.60;5.05;;;6.10;99.90;;;;;;4950731;28;20086;-73
2023/12/23 08:05:10;;;;;;;11.52;5.05;;;6.20;99.90;;;;;;4946056;28;20023;-73
2023/12/23 08:07:36;;;;;;;12.65;6.28;;;6.30;99.90;;;;;;4947591;29;20423;-74
2023/12/23 08:10:04;;;;;;;13.45;5.75;;;6.40;99.90;;;;;;4954387;28;20023;-73
2023/12/23 08:12:30;;;;;;;15.93;5.93;;;6.40;99.90;;;;;;4948609;28;20039;-74
2023/12/23 08:14:56;;;;;;;9.70;5.43;;;6.40;99.90;;;;;;4954545;28;20027;-73
2023/12/23 08:17:22;;;;;;;11.48;6.45;;;6.50;99.90;;;;;;4954229;29;20027;-74
2023/12/23 08:19:48;;;;;;;11.07;5.75;;;6.60;99.90;;;;;;4954119;28;20030;-75
2023/12/23 08:22:14;;;;;;;9.18;4.75;;;6.50;99.90;;;;;;4936938;29;20039;-74
2023/12/23 08:24:40;;;;;;;6.53;3.83;;;6.50;99.90;;;;;;4936928;29;20028;-74
2023/12/23 08:27:06;;;;;;;10.18;4.78;;;6.60;99.90;;;;;;4954101;29;20027;-74
2023/12/23 08:29:33;;;;;;;10.82;4.75;;;6.60;99.90;;;;;;4953896;29;20039;-74
2023/12/23 08:31:59;;;;;;;7.70;3.58;;;6.50;99.90;;;;;;4945496;28;20072;-74
2023/12/23 08:34:25;;;;;;;8.80;4.30;;;6.40;99.90;;;;;;4951432;29;20069;-74
2023/12/23 08:36:51;;;;;;;11.57;5.40;;;6.40;99.90;;;;;;4953920;29;20049;-73
2023/12/23 08:39:17;;;;;;;7.80;4.13;;;6.40;99.90;;;;;;4953826;29;20039;-75
2023/12/23 08:41:43;;;;;;;7.57;3.80;;;6.50;99.90;;;;;;4954158;29;20062;-74
2023/12/23 08:44:09;;;;;;;8.27;3.28;;;6.50;99.90;;;;;;4943915;28;20035;-73
2023/12/23 08:46:35;;;;;;;8.65;3.25;;;6.30;99.90;;;;;;4947744;29;20027;-74
2023/12/23 08:49:01;;;;;;;4.45;1.80;;;6.40;99.90;;;;;;4927729;29;20495;-74
2023/12/23 08:51:31;;;;;;;6.53;2.88;;;6.30;99.90;;;;;;4941321;29;20027;-75
2023/12/23 08:53:57;;;;;;;5.95;3.15;;;6.20;99.90;;;;;;4943638;29;20435;-74
2023/12/23 08:56:23;;;;;;;3.58;1.75;;;6.20;99.90;;;;;;4943320;29;20015;-74
2023/12/23 08:58:49;;;;;;;2.58;1.48;;;6.20;99.90;;;;;;4951593;28;20489;-73
2023/12/23 09:01:15;;;;;;;2.08;1.33;;;6.20;99.90;;;;;;4954021;28;20019;-74
2023/12/23 09:03:41;;;;;;;4.03;1.80;;;6.20;99.90;;;;;;4952506;28;20027;-74
2023/12/23 09:06:07;;;;;;;5.15;2.40;;;6.20;99.90;;;;;;4946320;28;20020;-74
2023/12/23 09:08:34;;;;;;;7.45;2.65;;;6.20;99.90;;;;;;4953467;28;20043;-74
2023/12/23 09:11:04;;;;;;;10.15;3.13;;;6.30;99.90;;;;;;4953237;29;20356;-74
2023/12/23 09:13:30;;;;;;;6.88;2.78;;;6.30;99.90;;;;;;4945587;28;20031;-74
2023/12/23 09:15:56;;;;;;;4.18;2.78;;;6.30;99.90;;;;;;4953348;28;20026;-74
2023/12/23 09:18:22;;;;;;;2.85;1.73;;;6.30;99.90;;;;;;4952674;28;20039;-74
2023/12/23 09:20:47;;;;;;;8.63;3.88;;;6.30;99.90;;;;;;4953898;28;20020;-74
2023/12/23 09:23:13;;;;;;;13.73;5.50;;;6.50;99.90;;;;;;4952043;29;20030;-74
2023/12/23 09:25:39;;;;;;;9.63;4.50;;;6.50;99.90;;;;;;4951918;28;20503;-74
2023/12/23 09:28:05;;;;;;;9.60;2.95;;;6.50;99.90;;;;;;4944989;28;20030;-74
2023/12/23 09:30:31;;;;;;;7.55;2.83;;;6.40;99.90;;;;;;4953091;28;20073;-75
2023/12/23 09:32:57;;;;;;;9.70;3.40;;;6.40;99.90;;;;;;4954203;28;20501;-74
2023/12/23 09:35:23;;;;;;;7.15;3.67;;;6.40;99.90;;;;;;4959427;28;20051;-74
2023/12/23 09:37:49;;;;;;;7.05;3.05;;;6.40;99.90;;;;;;4962455;28;20143;-75
2023/12/23 09:40:18;;;;;;;4.85;2.38;;;6.50;99.90;;;;;;4950566;28;20092;-71
2023/12/23 09:42:44;;;;;;;4.68;2.50;;;6.50;99.90;;;;;;4957097;28;20031;-72
2023/12/23 09:45:13;;;;;;;7.28;3.78;;;6.60;99.90;;;;;;4958724;28;20030;-73
2023/12/23 09:47:39;;;;;;;4.18;1.60;;;6.70;99.90;;;;;;4958479;28;20034;-73
2023/12/23 09:50:06;;;;;;;2.13;0.70;;;6.70;99.90;;;;;;4957790;28;20024;-74
2023/12/23 09:52:31;;;;;;;4.93;2.67;;;6.80;99.90;;;;;;4963257;28;20030;-74
2023/12/23 09:54:58;;;;;;;6.57;3.05;;;6.90;99.90;;;;;;4961972;28;20027;-73
2023/12/23 09:57:25;;;;;;;12.07;2.63;;;7.00;99.90;;;;;;4968501;28;20035;-73
2023/12/23 09:59:52;;;;;;;3.65;1.58;;;7.00;99.90;;;;;;4968847;28;20508;-73
2023/12/23 10:02:17;;;;;;;3.30;1.20;;;7.00;99.90;;;;;;4961790;28;20035;-74
2023/12/23 10:04:43;;;;;;;1.70;1.00;;;7.10;99.90;;;;;;4953121;28;20394;-74
2023/12/23 10:07:09;;;;;;;2.63;1.42;;;7.10;99.90;;;;;;4962322;28;20359;-73
2023/12/23 10:09:35;;;;;;;5.80;2.30;;;7.00;99.90;;;;;;4957755;28;20039;-74
2023/12/23 10:12:02;;;;;;;10.27;4.57;;;6.90;99.90;;;;;;4960267;28;20023;-73
2023/12/23 10:14:28;;;;;;;11.55;4.75;;;7.00;99.90;;;;;;4972436;28;20110;-74
2023/12/23 10:16:55;;;;;;;16.20;6.25;;;6.90;99.90;;;;;;4975930;28;20057;-74
2023/12/23 10:19:21;;;;;;;21.85;10.48;;;7.00;99.90;;;;;;4966371;28;20023;-74
2023/12/23 10:21:48;;;;;;;24.58;11.35;;;7.00;99.90;;;;;;4961353;28;20035;-74
2023/12/23 10:24:14;;;;;;;16.65;7.28;;;7.00;99.90;;;;;;4937842;29;20020;-73
2023/12/23 10:26:41;;;;;;;17.02;8.35;;;6.80;99.90;;;;;;4937130;29;20038;-74
2023/12/23 10:29:09;;;;;;;11.20;5.53;;;6.80;99.90;;;;;;4937000;29;20047;-74
2023/12/23 10:31:41;;;;;;;9.60;5.28;;;7.00;99.90;;;;;;4937230;29;20027;-74
2023/12/23 10:34:10;;;;;;;10.20;5.30;;;7.00;99.90;;;;;;4936807;29;20383;-74
2023/12/23 10:36:41;;;;;;;9.60;4.78;;;7.10;99.90;;;;;;4936956;29;20048;-73
2023/12/23 10:39:16;;;;;;;6.63;2.70;;;7.10;99.90;;;;;;4928754;29;20031;-74
2023/12/23 10:42:08;;;;;;;7.38;3.25;;;7.00;99.90;;;;;;4942890;29;20038;-74
2023/12/23 10:44:35;;;;;;;9.27;3.95;;;6.90;99.90;;;;;;4955501;28;20031;-74
2023/12/23 10:47:02;;;;;;;9.00;3.95;;;7.00;99.90;;;;;;4938705;29;20414;-75
2023/12/23 10:49:28;;;;;;;7.47;3.67;;;7.00;99.90;;;;;;4955436;28;20039;-75
2023/12/23 10:51:55;;;;;;;5.60;2.92;;;6.80;99.90;;;;;;4955657;28;20534;-76
2023/12/23 10:54:24;;;;;;;10.48;3.75;;;6.90;99.90;;;;;;4955577;29;20035;-76
2023/12/23 10:56:53;;;;;;;4.25;1.20;;;6.80;99.90;;;;;;4955867;29;20016;-75
2023/12/23 10:59:24;;;;;;;4.60;2.70;;;6.70;99.90;;;;;;4955934;28;20019;-75
2023/12/23 11:01:50;;;;;;;4.40;2.25;;;6.70;99.90;;;;;;4955721;28;20038;-76
2023/12/23 11:04:16;;;;;;;11.85;5.00;;;6.80;99.90;;;;;;4955479;29;20034;-76
2023/12/23 11:06:45;;;;;;;14.80;6.40;;;6.80;99.90;;;;;;4955918;29;20411;-75
2023/12/23 11:09:12;;;;;;;6.05;2.75;;;6.80;99.90;;;;;;4955357;28;20038;-76
2023/12/23 11:11:40;;;;;;;9.48;4.05;;;6.90;99.90;;;;;;4955192;28;20031;-76
2023/12/23 11:14:07;;;;;;;11.45;3.60;;;6.90;99.90;;;;;;4955134;28;20038;-76
2023/12/23 11:16:33;;;;;;;7.28;3.40;;;6.90;99.90;;;;;;4955260;29;20391;-75
2023/12/23 11:19:02;;;;;;;6.50;3.63;;;7.00;99.90;;;;;;4938275;29;20035;-76
2023/12/23 11:21:29;;;;;;;5.90;2.65;;;7.10;99.90;;;;;;4955094;28;20031;-76
2023/12/23 11:23:57;;;;;;;4.68;2.15;;;7.10;99.90;;;;;;4955544;29;20023;-76
2023/12/23 11:26:39;;;;;;;5.57;1.95;;;6.90;99.90;;;;;;4955018;28;20063;-75
2023/12/23 11:29:06;;;;;;;4.13;1.83;;;7.00;99.90;;;;;;4954800;29;20098;-76
2023/12/23 11:31:32;;;;;;;8.95;3.55;;;7.00;99.90;;;;;;4955214;28;20054;-75
2023/12/23 11:34:11;;;;;;;9.38;3.78;;;7.20;99.90;;;;;;4955318;28;20078;-76
2023/12/23 11:36:37;;;;;;;4.40;2.30;;;7.20;99.90;;;;;;4955095;29;20083;-76
2023/12/23 11:39:05;;;;;;;7.75;2.90;;;7.20;99.90;;;;;;4954786;28;20035;-76
2023/12/23 11:41:32;;;;;;;4.82;1.77;;;7.20;99.90;;;;;;4954857;29;20060;-75
2023/12/23 11:43:58;;;;;;;7.80;2.72;;;7.20;99.90;;;;;;4955310;28;20035;-76
2023/12/23 11:46:25;;;;;;;5.45;2.15;;;7.00;99.90;;;;;;4954755;29;20482;-76
2023/12/23 11:48:51;;;;;;;2.65;1.55;;;7.10;99.90;;;;;;4954709;29;20043;-76
2023/12/23 11:51:17;;;;;;;7.32;2.08;;;7.10;99.90;;;;;;4954697;29;20019;-76
2023/12/23 11:53:43;;;;;;;7.07;2.03;;;7.10;99.90;;;;;;4954782;29;20038;-75
2023/12/23 11:56:09;;;;;;;3.58;1.80;;;7.20;99.90;;;;;;4953768;28;20019;-76
2023/12/23 11:58:35;;;;;;;5.18;2.70;;;7.20;99.90;;;;;;4954610;29;20046;-75
2023/12/23 12:01:01;;;;;;;6.35;2.70;;;7.20;99.90;;;;;;4954481;29;20028;-75
2023/12/23 12:03:27;;;;;;;4.22;2.15;;;7.30;99.90;;;;;;4954476;28;20029;-76
2023/12/23 12:05:58;;;;;;;2.85;1.77;;;7.20;99.90;;;;;;4954464;28;20043;-76
2023/12/23 12:08:25;;;;;;;2.97;1.50;;;7.30;99.90;;;;;;4954170;29;20043;-76
2023/12/23 12:10:55;;;;;;;3.35;1.75;;;7.20;99.90;;;;;;4954606;28;20024;-75
2023/12/23 12:13:21;;;;;;;6.97;2.42;;;7.20;99.90;;;;;;4954425;28;20120;-76
2023/12/23 12:15:46;;;;;;;6.30;2.85;;;7.10;99.90;;;;;;4954681;29;20035;-76
2023/12/23 12:18:12;;;;;;;6.47;3.17;;;7.00;99.90;;;;;;4954150;28;20058;-76
2023/12/23 12:20:38;;;;;;;7.03;2.65;;;7.10;99.90;;;;;;4954572;28;20137;-76
2023/12/23 12:23:04;;;;;;;5.50;2.10;;;7.10;99.90;;;;;;4954149;29;20093;-76
2023/12/23 12:25:30;;;;;;;3.63;2.05;;;7.20;99.90;;;;;;4954333;28;20015;-75
2023/12/23 12:27:57;;;;;;;6.78;2.50;;;7.20;99.90;;;;;;4953958;29;20039;-75
2023/12/23 12:30:23;;;;;;;6.28;2.67;;;7.30;99.90;;;;;;4954353;29;20438;-75
2023/12/23 12:32:50;;;;;;;4.03;2.03;;;7.30;99.90;;;;;;4953997;29;20027;-75
2023/12/23 12:35:16;;;;;;;4.45;1.63;;;7.30;99.90;;;;;;4953739;29;20075;-75
2023/12/23 12:37:43;;;;;;;6.78;2.92;;;7.40;99.90;;;;;;4954135;28;20062;-75
2023/12/23 12:40:12;;;;;;;5.55;2.42;;;7.30;99.90;;;;;;4954077;29;20038;-74
2023/12/23 12:42:44;;;;;;;5.30;2.42;;;7.30;99.90;;;;;;4953875;29;20151;-75
2023/12/23 12:45:11;;;;;;;4.93;2.03;;;7.40;99.90;;;;;;4953771;29;20035;-74
2023/12/23 12:47:40;;;;;;;2.00;0.93;;;7.40;99.90;;;;;;4954011;29;20054;-74